sensor_id;sensor_type;location;lat;lon;timestamp;pressure;altitude;pressure_sealevel;temperature;humidity
46394;BME280;32099;53.588;10.176;2022-09-03T00:00:39;101464.69;;;16.39;51.76
46394;BME280;32099;53.588;10.176;2022-09-03T00:03:09;101455.59;;;16.39;51.70
46394;BME280;32099;53.588;10.176;2022-09-03T00:05:46;101458.75;;;16.35;51.95
46394;BME280;32099;53.588;10.176;2022-09-03T00:08:13;101454.69;;;16.31;52.19
46394;BME280;32099;53.588;10.176;2022-09-03T00:10:50;101456.59;;;16.31;52.24
46394;BME280;32099;53.588;10.176;2022-09-03T00:13:39;101457.00;;;16.28;52.08
46394;BME280;32099;53.588;10.176;2022-09-03T00:16:04;101452.75;;;16.25;52.09
46394;BME280;32099;53.588;10.176;2022-09-03T00:18:34;101449.34;;;16.23;52.07
46394;BME280;32099;53.588;10.176;2022-09-03T00:21:05;101446.16;;;16.19;52.38
46394;BME280;32099;53.588;10.176;2022-09-03T00:23:32;101457.97;;;16.13;53.21
46394;BME280;32099;53.588;10.176;2022-09-03T00:26:15;101454.13;;;16.08;52.54
46394;BME280;32099;53.588;10.176;2022-09-03T00:31:09;101458.78;;;16.07;52.66
46394;BME280;32099;53.588;10.176;2022-09-03T00:33:36;101456.66;;;16.02;52.96
46394;BME280;32099;53.588;10.176;2022-09-03T00:36:07;101448.16;;;15.97;52.85
46394;BME280;32099;53.588;10.176;2022-09-03T00:38:36;101450.06;;;15.97;52.87
46394;BME280;32099;53.588;10.176;2022-09-03T00:41:05;101452.81;;;15.97;52.96
46394;BME280;32099;53.588;10.176;2022-09-03T00:46:02;101450.47;;;15.94;53.08
46394;BME280;32099;53.588;10.176;2022-09-03T00:48:32;101445.78;;;15.87;53.21
46394;BME280;32099;53.588;10.176;2022-09-03T00:51:24;101451.47;;;15.86;53.37
46394;BME280;32099;53.588;10.176;2022-09-03T00:53:56;101447.00;;;15.85;53.42
46394;BME280;32099;53.588;10.176;2022-09-03T01:06:36;101450.63;;;15.85;53.16
46394;BME280;32099;53.588;10.176;2022-09-03T01:11:50;101455.44;;;15.83;53.62
46394;BME280;32099;53.588;10.176;2022-09-03T01:16:52;101456.88;;;15.79;53.42
46394;BME280;32099;53.588;10.176;2022-09-03T01:21:54;101456.66;;;15.74;53.44
46394;BME280;32099;53.588;10.176;2022-09-03T01:29:48;101449.44;;;15.73;53.57
46394;BME280;32099;53.588;10.176;2022-09-03T01:32:26;101443.69;;;15.68;53.57
46394;BME280;32099;53.588;10.176;2022-09-03T01:34:58;101445.78;;;15.66;53.68
46394;BME280;32099;53.588;10.176;2022-09-03T01:40:14;101441.47;;;15.56;53.87
46394;BME280;32099;53.588;10.176;2022-09-03T01:45:30;101441.88;;;15.53;53.87
46394;BME280;32099;53.588;10.176;2022-09-03T01:48:09;101439.13;;;15.53;53.82
46394;BME280;32099;53.588;10.176;2022-09-03T01:50:41;101449.28;;;15.53;53.89
46394;BME280;32099;53.588;10.176;2022-09-03T01:53:22;101441.88;;;15.53;54.02
46394;BME280;32099;53.588;10.176;2022-09-03T01:58:48;101444.78;;;15.45;54.12
46394;BME280;32099;53.588;10.176;2022-09-03T02:01:21;101442.63;;;15.40;54.15
46394;BME280;32099;53.588;10.176;2022-09-03T02:03:48;101437.94;;;15.34;54.12
46394;BME280;32099;53.588;10.176;2022-09-03T02:06:14;101431.78;;;15.32;54.36
46394;BME280;32099;53.588;10.176;2022-09-03T02:08:40;101441.28;;;15.30;54.41
46394;BME280;32099;53.588;10.176;2022-09-03T02:11:06;101438.31;;;15.31;54.40
46394;BME280;32099;53.588;10.176;2022-09-03T02:13:43;101432.84;;;15.31;54.25
46394;BME280;32099;53.588;10.176;2022-09-03T02:16:11;101434.53;;;15.32;54.46
46394;BME280;32099;53.588;10.176;2022-09-03T02:18:40;101440.88;;;15.33;54.43
46394;BME280;32099;53.588;10.176;2022-09-03T02:21:05;101432.63;;;15.33;54.32
46394;BME280;32099;53.588;10.176;2022-09-03T02:23:31;101441.72;;;15.33;54.21
46394;BME280;32099;53.588;10.176;2022-09-03T02:25:57;101438.97;;;15.33;54.27
46394;BME280;32099;53.588;10.176;2022-09-03T02:28:24;101438.53;;;15.30;54.20
46394;BME280;32099;53.588;10.176;2022-09-03T02:30:49;101431.50;;;15.27;54.64
46394;BME280;32099;53.588;10.176;2022-09-03T02:33:14;101428.31;;;15.23;54.59
46394;BME280;32099;53.588;10.176;2022-09-03T02:35:40;101439.50;;;15.22;54.47
46394;BME280;32099;53.588;10.176;2022-09-03T02:38:09;101434.41;;;15.19;54.79
46394;BME280;32099;53.588;10.176;2022-09-03T02:40:35;101440.94;;;15.18;55.30
46394;BME280;32099;53.588;10.176;2022-09-03T02:43:00;101438.78;;;15.13;55.36
46394;BME280;32099;53.588;10.176;2022-09-03T02:45:27;101437.47;;;15.09;54.96
46394;BME280;32099;53.588;10.176;2022-09-03T02:47:54;101435.59;;;15.09;54.76
46394;BME280;32099;53.588;10.176;2022-09-03T02:50:19;101439.38;;;15.08;54.85
46394;BME280;32099;53.588;10.176;2022-09-03T02:52:45;101439.59;;;15.07;54.98
46394;BME280;32099;53.588;10.176;2022-09-03T02:55:10;101443.19;;;15.07;55.08
46394;BME280;32099;53.588;10.176;2022-09-03T02:57:35;101448.47;;;15.09;55.10
46394;BME280;32099;53.588;10.176;2022-09-03T03:00:01;101439.59;;;15.07;54.77
46394;BME280;32099;53.588;10.176;2022-09-03T03:02:26;101440.44;;;15.07;55.28
46394;BME280;32099;53.588;10.176;2022-09-03T03:04:51;101435.31;;;15.04;55.12
46394;BME280;32099;53.588;10.176;2022-09-03T03:07:16;101433.81;;;15.02;55.34
46394;BME280;32099;53.588;10.176;2022-09-03T03:09:42;101435.25;;;14.98;55.19
46394;BME280;32099;53.588;10.176;2022-09-03T03:12:07;101433.09;;;14.93;55.40
46394;BME280;32099;53.588;10.176;2022-09-03T03:14:34;101438.97;;;14.90;55.26
46394;BME280;32099;53.588;10.176;2022-09-03T03:16:59;101433.03;;;14.86;55.53
46394;BME280;32099;53.588;10.176;2022-09-03T03:19:24;101434.28;;;14.84;55.60
46394;BME280;32099;53.588;10.176;2022-09-03T03:21:49;101431.25;;;14.78;55.76
46394;BME280;32099;53.588;10.176;2022-09-03T03:24:14;101437.59;;;14.79;55.98
46394;BME280;32099;53.588;10.176;2022-09-03T03:26:39;101443.69;;;14.74;55.71
46394;BME280;32099;53.588;10.176;2022-09-03T03:29:05;101433.28;;;14.70;55.85
46394;BME280;32099;53.588;10.176;2022-09-03T03:31:30;101432.97;;;14.64;55.96
46394;BME280;32099;53.588;10.176;2022-09-03T03:33:57;101436.28;;;14.60;56.08
46394;BME280;32099;53.588;10.176;2022-09-03T03:36:23;101435.16;;;14.54;56.21
46394;BME280;32099;53.588;10.176;2022-09-03T03:38:48;101442.94;;;14.50;56.18
46394;BME280;32099;53.588;10.176;2022-09-03T03:41:19;101436.53;;;14.43;56.40
46394;BME280;32099;53.588;10.176;2022-09-03T03:43:51;101436.03;;;14.40;56.24
46394;BME280;32099;53.588;10.176;2022-09-03T03:46:17;101439.19;;;14.37;56.73
46394;BME280;32099;53.588;10.176;2022-09-03T03:48:42;101435.97;;;14.33;56.59
46394;BME280;32099;53.588;10.176;2022-09-03T03:51:08;101436.72;;;14.27;56.61
46394;BME280;32099;53.588;10.176;2022-09-03T03:53:34;101444.66;;;14.22;56.56
46394;BME280;32099;53.588;10.176;2022-09-03T03:56:00;101446.09;;;14.17;56.87
46394;BME280;32099;53.588;10.176;2022-09-03T03:58:29;101444.59;;;14.15;56.99
46394;BME280;32099;53.588;10.176;2022-09-03T04:00:55;101446.28;;;14.16;56.72
46394;BME280;32099;53.588;10.176;2022-09-03T04:03:27;101437.88;;;14.17;56.62
46394;BME280;32099;53.588;10.176;2022-09-03T04:05:54;101446.09;;;14.17;56.92
46394;BME280;32099;53.588;10.176;2022-09-03T04:08:20;101449.88;;;14.16;56.73
46394;BME280;32099;53.588;10.176;2022-09-03T04:10:45;101456.22;;;14.17;56.89
46394;BME280;32099;53.588;10.176;2022-09-03T04:13:10;101449.44;;;14.13;56.62
46394;BME280;32099;53.588;10.176;2022-09-03T04:15:35;101451.13;;;14.14;56.76
46394;BME280;32099;53.588;10.176;2022-09-03T04:18:01;101453.47;;;14.17;56.81
46394;BME280;32099;53.588;10.176;2022-09-03T04:20:26;101455.16;;;14.18;56.58
46394;BME280;32099;53.588;10.176;2022-09-03T04:22:51;101462.38;;;14.19;56.56
46394;BME280;32099;53.588;10.176;2022-09-03T04:25:16;101450.16;;;14.22;56.78
46394;BME280;32099;53.588;10.176;2022-09-03T04:27:41;101450.81;;;14.24;56.63
46394;BME280;32099;53.588;10.176;2022-09-03T04:30:08;101440.72;;;14.24;56.83
46394;BME280;32099;53.588;10.176;2022-09-03T04:32:33;101450.16;;;14.22;56.52
46394;BME280;32099;53.588;10.176;2022-09-03T04:35:17;101444.66;;;14.22;56.66
46394;BME280;32099;53.588;10.176;2022-09-03T04:37:42;101444.66;;;14.22;56.68
46394;BME280;32099;53.588;10.176;2022-09-03T04:40:07;101447.63;;;14.20;56.58
46394;BME280;32099;53.588;10.176;2022-09-03T04:42:33;101445.25;;;14.17;56.81
46394;BME280;32099;53.588;10.176;2022-09-03T04:44:58;101437.41;;;14.14;56.80
46394;BME280;32099;53.588;10.176;2022-09-03T04:47:23;101439.97;;;14.15;56.77
46394;BME280;32099;53.588;10.176;2022-09-03T04:49:48;101446.69;;;14.13;56.84
46394;BME280;32099;53.588;10.176;2022-09-03T04:52:13;101444.97;;;14.12;56.50
46394;BME280;32099;53.588;10.176;2022-09-03T04:54:38;101449.88;;;14.16;56.49
46394;BME280;32099;53.588;10.176;2022-09-03T04:57:04;101453.28;;;14.18;56.30
46394;BME280;32099;53.588;10.176;2022-09-03T04:59:29;101459.25;;;14.22;56.30
46394;BME280;32099;53.588;10.176;2022-09-03T05:01:54;101458.00;;;14.25;56.16
46394;BME280;32099;53.588;10.176;2022-09-03T05:04:20;101462.47;;;14.26;56.26
46394;BME280;32099;53.588;10.176;2022-09-03T05:06:45;101460.84;;;14.31;56.24
46394;BME280;32099;53.588;10.176;2022-09-03T05:09:10;101457.06;;;14.32;56.10
46394;BME280;32099;53.588;10.176;2022-09-03T05:11:36;101460.28;;;14.36;56.39
46394;BME280;32099;53.588;10.176;2022-09-03T05:14:01;101459.22;;;14.37;56.10
46394;BME280;32099;53.588;10.176;2022-09-03T05:16:27;101458.41;;;14.37;55.79
46394;BME280;32099;53.588;10.176;2022-09-03T05:18:54;101454.63;;;14.38;55.91
46394;BME280;32099;53.588;10.176;2022-09-03T05:21:20;101453.38;;;14.40;55.93
46394;BME280;32099;53.588;10.176;2022-09-03T05:23:46;101453.84;;;14.44;55.96
46394;BME280;32099;53.588;10.176;2022-09-03T05:26:16;101444.34;;;14.46;55.72
46394;BME280;32099;53.588;10.176;2022-09-03T05:28:42;101445.22;;;14.47;55.90
46394;BME280;32099;53.588;10.176;2022-09-03T05:31:09;101443.16;;;14.49;56.20
46394;BME280;32099;53.588;10.176;2022-09-03T05:33:34;101442.06;;;14.50;56.04
46394;BME280;32099;53.588;10.176;2022-09-03T05:36:00;101437.06;;;14.54;56.00
46394;BME280;32099;53.588;10.176;2022-09-03T05:38:26;101439.63;;;14.55;55.87
46394;BME280;32099;53.588;10.176;2022-09-03T05:40:51;101448.06;;;14.54;55.97
46394;BME280;32099;53.588;10.176;2022-09-03T05:43:16;101438.94;;;14.53;55.94
46394;BME280;32099;53.588;10.176;2022-09-03T05:45:41;101448.22;;;14.52;56.28
46394;BME280;32099;53.588;10.176;2022-09-03T05:48:07;101446.16;;;14.54;56.04
46394;BME280;32099;53.588;10.176;2022-09-03T05:50:32;101445.56;;;14.59;56.60
46394;BME280;32099;53.588;10.176;2022-09-03T05:52:57;101441.13;;;14.58;56.10
46394;BME280;32099;53.588;10.176;2022-09-03T05:55:22;101445.84;;;14.64;55.93
46394;BME280;32099;53.588;10.176;2022-09-03T05:57:51;101448.22;;;14.67;56.10
46394;BME280;32099;53.588;10.176;2022-09-03T06:00:16;101458.16;;;14.68;56.07
46394;BME280;32099;53.588;10.176;2022-09-03T06:02:43;101458.81;;;14.70;55.87
46394;BME280;32099;53.588;10.176;2022-09-03T06:05:13;101453.63;;;14.75;56.07
46394;BME280;32099;53.588;10.176;2022-09-03T06:07:40;101459.78;;;14.77;55.65
46394;BME280;32099;53.588;10.176;2022-09-03T06:10:05;101455.56;;;14.81;56.08
46394;BME280;32099;53.588;10.176;2022-09-03T06:12:31;101460.69;;;14.85;55.66
46394;BME280;32099;53.588;10.176;2022-09-03T06:14:56;101467.28;;;14.90;55.66
46394;BME280;32099;53.588;10.176;2022-09-03T06:17:22;101463.97;;;14.95;55.74
46394;BME280;32099;53.588;10.176;2022-09-03T06:19:47;101464.41;;;14.99;55.71
46394;BME280;32099;53.588;10.176;2022-09-03T06:22:12;101454.97;;;15.01;55.74
46394;BME280;32099;53.588;10.176;2022-09-03T06:24:37;101455.41;;;15.05;55.64
46394;BME280;32099;53.588;10.176;2022-09-03T06:27:02;101459.66;;;15.07;55.88
46394;BME280;32099;53.588;10.176;2022-09-03T06:29:27;101457.38;;;15.11;55.74
46394;BME280;32099;53.588;10.176;2022-09-03T06:31:53;101450.44;;;15.15;55.18
46394;BME280;32099;53.588;10.176;2022-09-03T06:34:18;101459.59;;;15.22;55.05
46394;BME280;32099;53.588;10.176;2022-09-03T06:36:46;101460.69;;;15.28;55.47
46394;BME280;32099;53.588;10.176;2022-09-03T06:39:11;101453.56;;;15.34;55.23
46394;BME280;32099;53.588;10.176;2022-09-03T06:41:36;101461.03;;;15.40;55.12
46394;BME280;32099;53.588;10.176;2022-09-03T06:44:03;101460.81;;;15.41;54.65
46394;BME280;32099;53.588;10.176;2022-09-03T06:46:29;101463.41;;;15.50;55.07
46394;BME280;32099;53.588;10.176;2022-09-03T06:48:55;101462.22;;;15.59;54.85
46394;BME280;32099;53.588;10.176;2022-09-03T06:51:21;101465.69;;;15.68;54.83
46394;BME280;32099;53.588;10.176;2022-09-03T06:53:48;101474.63;;;15.77;55.03
46394;BME280;32099;53.588;10.176;2022-09-03T06:56:15;101470.72;;;15.86;54.55
46394;BME280;32099;53.588;10.176;2022-09-03T06:58:44;101466.34;;;15.98;54.49
46394;BME280;32099;53.588;10.176;2022-09-03T07:01:14;101478.72;;;16.09;54.01
46394;BME280;32099;53.588;10.176;2022-09-03T07:03:40;101476.44;;;16.19;53.96
46394;BME280;32099;53.588;10.176;2022-09-03T07:06:07;101471.19;;;16.31;53.89
46394;BME280;32099;53.588;10.176;2022-09-03T07:08:33;101468.94;;;16.48;53.73
46394;BME280;32099;53.588;10.176;2022-09-03T07:10:59;101467.09;;;16.62;53.39
46394;BME280;32099;53.588;10.176;2022-09-03T07:13:25;101469.72;;;16.77;53.21
46394;BME280;32099;53.588;10.176;2022-09-03T07:15:57;101464.25;;;16.91;52.46
46394;BME280;32099;53.588;10.176;2022-09-03T07:18:23;101476.16;;;17.05;52.40
46394;BME280;32099;53.588;10.176;2022-09-03T07:20:48;101474.50;;;17.17;52.27
46394;BME280;32099;53.588;10.176;2022-09-03T07:23:13;101479.41;;;17.35;51.82
46394;BME280;32099;53.588;10.176;2022-09-03T07:25:40;101479.84;;;17.52;51.57
46394;BME280;32099;53.588;10.176;2022-09-03T07:28:05;101480.66;;;17.73;51.17
46394;BME280;32099;53.588;10.176;2022-09-03T07:30:31;101481.09;;;17.97;50.73
46394;BME280;32099;53.588;10.176;2022-09-03T07:32:56;101472.38;;;18.07;50.11
46394;BME280;32099;53.588;10.176;2022-09-03T07:35:25;101476.78;;;18.21;49.85
46394;BME280;32099;53.588;10.176;2022-09-03T07:37:50;101473.56;;;18.44;49.74
46394;BME280;32099;53.588;10.176;2022-09-03T07:40:16;101474.91;;;18.74;49.69
46394;BME280;32099;53.588;10.176;2022-09-03T07:42:42;101474.59;;;19.02;48.63
46394;BME280;32099;53.588;10.176;2022-09-03T07:45:08;101472.34;;;19.18;48.47
46394;BME280;32099;53.588;10.176;2022-09-03T07:47:36;101472.44;;;19.36;48.14
46394;BME280;32099;53.588;10.176;2022-09-03T07:50:02;101479.09;;;19.54;47.50
46394;BME280;32099;53.588;10.176;2022-09-03T07:52:27;101469.66;;;19.62;47.94
46394;BME280;32099;53.588;10.176;2022-09-03T07:54:53;101478.41;;;19.84;47.77
46394;BME280;32099;53.588;10.176;2022-09-03T07:57:18;101480.94;;;20.11;46.87
46394;BME280;32099;53.588;10.176;2022-09-03T07:59:43;101472.03;;;20.27;46.06
46394;BME280;32099;53.588;10.176;2022-09-03T08:02:08;101473.34;;;20.43;46.89
46394;BME280;32099;53.588;10.176;2022-09-03T08:04:33;101478.38;;;20.65;46.53
46394;BME280;32099;53.588;10.176;2022-09-03T08:07:00;101463.13;;;20.93;45.81
46394;BME280;32099;53.588;10.176;2022-09-03T08:09:25;101475.00;;;21.12;45.30
46394;BME280;32099;53.588;10.176;2022-09-03T08:11:50;101474.66;;;21.20;45.17
46394;BME280;32099;53.588;10.176;2022-09-03T08:14:15;101470.72;;;21.28;45.30
46394;BME280;32099;53.588;10.176;2022-09-03T08:16:43;101469.91;;;21.51;45.08
46394;BME280;32099;53.588;10.176;2022-09-03T08:21:35;101470.56;;;21.77;44.15
46394;BME280;32099;53.588;10.176;2022-09-03T13:50:48;101312.00;;;24.02;38.29
46394;BME280;32099;53.588;10.176;2022-09-03T13:59:39;101313.38;;;23.60;33.77
46394;BME280;32099;53.588;10.176;2022-09-03T14:02:22;101316.81;;;23.45;37.80
46394;BME280;32099;53.588;10.176;2022-09-03T14:15:14;101301.22;;;24.11;35.48
46394;BME280;32099;53.588;10.176;2022-09-03T14:17:55;101300.94;;;24.34;35.99
46394;BME280;32099;53.588;10.176;2022-09-03T14:20:40;101296.16;;;24.30;33.75
46394;BME280;32099;53.588;10.176;2022-09-03T14:23:46;101298.59;;;24.21;38.36
46394;BME280;32099;53.588;10.176;2022-09-03T14:26:48;101289.88;;;24.17;34.97
46394;BME280;32099;53.588;10.176;2022-09-03T14:29:27;101297.31;;;24.07;33.95
46394;BME280;32099;53.588;10.176;2022-09-03T14:31:57;101300.00;;;24.01;36.33
46394;BME280;32099;53.588;10.176;2022-09-03T14:40:26;101298.06;;;23.57;34.82
46394;BME280;32099;53.588;10.176;2022-09-03T14:48:54;101298.06;;;23.57;32.85
46394;BME280;32099;53.588;10.176;2022-09-03T14:57:14;101298.00;;;23.75;34.79
46394;BME280;32099;53.588;10.176;2022-09-03T15:02:47;101293.19;;;23.92;32.17
46394;BME280;32099;53.588;10.176;2022-09-03T15:10:58;101300.06;;;23.62;35.46
46394;BME280;32099;53.588;10.176;2022-09-03T15:13:34;101295.19;;;23.52;35.55
46394;BME280;32099;53.588;10.176;2022-09-03T15:22:07;101285.94;;;23.91;35.66
46394;BME280;32099;53.588;10.176;2022-09-03T15:24:50;101293.94;;;24.05;35.12
46394;BME280;32099;53.588;10.176;2022-09-03T15:30:32;101277.00;;;24.11;32.53
46394;BME280;32099;53.588;10.176;2022-09-03T15:35:42;101278.16;;;23.93;33.84
46394;BME280;32099;53.588;10.176;2022-09-03T15:40:55;101291.00;;;23.94;33.25
46394;BME280;32099;53.588;10.176;2022-09-03T15:43:26;101289.56;;;23.92;35.19
46394;BME280;32099;53.588;10.176;2022-09-03T15:45:54;101295.72;;;23.94;33.94
46394;BME280;32099;53.588;10.176;2022-09-03T15:51:05;101286.16;;;24.07;34.74
46394;BME280;32099;53.588;10.176;2022-09-03T15:53:48;101296.56;;;24.16;32.78
46394;BME280;32099;53.588;10.176;2022-09-03T15:59:05;101300.44;;;23.93;33.56
46394;BME280;32099;53.588;10.176;2022-09-03T16:01:44;101298.25;;;23.73;33.44
46394;BME280;32099;53.588;10.176;2022-09-03T16:04:34;101297.50;;;23.61;35.23
46394;BME280;32099;53.588;10.176;2022-09-03T16:07:26;101307.53;;;23.39;33.32
46394;BME280;32099;53.588;10.176;2022-09-03T16:12:33;101314.22;;;23.21;34.67
46394;BME280;32099;53.588;10.176;2022-09-03T16:15:06;101309.97;;;23.19;33.39
46394;BME280;32099;53.588;10.176;2022-09-03T16:17:43;101307.44;;;23.17;35.59
46394;BME280;32099;53.588;10.176;2022-09-03T16:20:40;101305.34;;;23.24;35.09
46394;BME280;32099;53.588;10.176;2022-09-03T16:23:11;101309.25;;;23.23;34.21
46394;BME280;32099;53.588;10.176;2022-09-03T16:25:44;101307.03;;;23.08;35.20
46394;BME280;32099;53.588;10.176;2022-09-03T16:28:23;101306.03;;;22.98;35.31
46394;BME280;32099;53.588;10.176;2022-09-03T16:31:00;101306.53;;;22.77;35.33
46394;BME280;32099;53.588;10.176;2022-09-03T16:36:48;101304.56;;;22.61;34.08
46394;BME280;32099;53.588;10.176;2022-09-03T16:39:38;101302.31;;;22.58;36.48
46394;BME280;32099;53.588;10.176;2022-09-03T16:45:33;101299.53;;;22.58;36.07
46394;BME280;32099;53.588;10.176;2022-09-03T16:54:33;101308.84;;;22.23;35.93
46394;BME280;32099;53.588;10.176;2022-09-03T16:57:34;101296.78;;;22.17;37.04
46394;BME280;32099;53.588;10.176;2022-09-03T17:01:31;101307.56;;;22.13;35.78
46394;BME280;32099;53.588;10.176;2022-09-03T17:06:27;101306.75;;;22.01;36.33
46394;BME280;32099;53.588;10.176;2022-09-03T17:09:08;101304.47;;;21.98;37.84
46394;BME280;32099;53.588;10.176;2022-09-03T17:28:38;101308.25;;;21.56;37.71
46394;BME280;32099;53.588;10.176;2022-09-03T17:31:23;101299.31;;;21.54;38.16
46394;BME280;32099;53.588;10.176;2022-09-03T17:34:04;101313.09;;;21.49;37.90
46394;BME280;32099;53.588;10.176;2022-09-03T17:36:55;101312.75;;;21.45;38.55
46394;BME280;32099;53.588;10.176;2022-09-03T17:42:23;101319.25;;;21.39;38.42
46394;BME280;32099;53.588;10.176;2022-09-03T17:45:02;101322.75;;;21.34;37.85
46394;BME280;32099;53.588;10.176;2022-09-03T17:53:37;101337.69;;;21.09;38.92
46394;BME280;32099;53.588;10.176;2022-09-03T17:56:23;101339.00;;;21.07;38.98
46394;BME280;32099;53.588;10.176;2022-09-03T17:58:54;101343.69;;;21.06;39.15
46394;BME280;32099;53.588;10.176;2022-09-03T18:01:30;101352.97;;;21.00;39.51
46394;BME280;32099;53.588;10.176;2022-09-03T18:04:13;101349.00;;;20.96;39.12
46394;BME280;32099;53.588;10.176;2022-09-03T18:15:35;101356.81;;;20.57;40.44
46394;BME280;32099;53.588;10.176;2022-09-03T18:18:04;101359.91;;;20.48;40.51
46394;BME280;32099;53.588;10.176;2022-09-03T18:20:40;101365.56;;;20.42;40.79
46394;BME280;32099;53.588;10.176;2022-09-03T18:23:31;101361.66;;;20.31;40.67
46394;BME280;32099;53.588;10.176;2022-09-03T18:26:30;101372.81;;;20.24;39.90
46394;BME280;32099;53.588;10.176;2022-09-03T18:29:27;101384.56;;;20.19;41.07
46394;BME280;32099;53.588;10.176;2022-09-03T18:32:16;101381.66;;;20.14;40.85
46394;BME280;32099;53.588;10.176;2022-09-03T18:35:00;101385.59;;;20.07;41.06
46394;BME280;32099;53.588;10.176;2022-09-03T18:37:44;101385.88;;;19.98;41.58
46394;BME280;32099;53.588;10.176;2022-09-03T18:40:30;101389.81;;;19.91;41.63
46394;BME280;32099;53.588;10.176;2022-09-03T18:43:29;101396.06;;;19.79;42.15
46394;BME280;32099;53.588;10.176;2022-09-03T18:49:26;101400.97;;;19.58;42.06
46394;BME280;32099;53.588;10.176;2022-09-03T18:52:20;101405.78;;;19.45;42.19
46394;BME280;32099;53.588;10.176;2022-09-03T19:01:10;101409.44;;;19.38;42.13
46394;BME280;32099;53.588;10.176;2022-09-03T19:07:43;101415.50;;;19.29;42.31
46394;BME280;32099;53.588;10.176;2022-09-03T19:10:45;101414.09;;;19.19;42.72
46394;BME280;32099;53.588;10.176;2022-09-03T19:13:35;101412.19;;;19.13;42.71
46394;BME280;32099;53.588;10.176;2022-09-03T19:22:40;101418.28;;;18.96;42.87
46394;BME280;32099;53.588;10.176;2022-09-03T19:25:26;101427.00;;;18.93;42.45
46394;BME280;32099;53.588;10.176;2022-09-03T19:43:45;101416.94;;;18.67;43.22
46394;BME280;32099;53.588;10.176;2022-09-03T19:55:25;101422.56;;;18.47;43.55
46394;BME280;32099;53.588;10.176;2022-09-03T19:58:12;101429.81;;;18.41;43.46
46394;BME280;32099;53.588;10.176;2022-09-03T20:01:01;101427.03;;;18.41;43.80
46394;BME280;32099;53.588;10.176;2022-09-03T20:03:44;101427.69;;;18.37;44.10
46394;BME280;32099;53.588;10.176;2022-09-03T20:06:28;101427.91;;;18.35;43.66
46394;BME280;32099;53.588;10.176;2022-09-03T20:09:17;101430.50;;;18.30;44.03
46394;BME280;32099;53.588;10.176;2022-09-03T20:12:06;101433.69;;;18.27;44.22
46394;BME280;32099;53.588;10.176;2022-09-03T20:14:33;101435.41;;;18.21;44.16
46394;BME280;32099;53.588;10.176;2022-09-03T20:19:56;101435.44;;;18.08;44.19
46394;BME280;32099;53.588;10.176;2022-09-03T20:22:46;101444.56;;;18.08;44.38
46394;BME280;32099;53.588;10.176;2022-09-03T20:28:18;101453.28;;;18.05;44.56
46394;BME280;32099;53.588;10.176;2022-09-03T20:31:15;101456.47;;;18.02;44.39
46394;BME280;32099;53.588;10.176;2022-09-03T20:39:11;101461.56;;;17.85;44.96
46394;BME280;32099;53.588;10.176;2022-09-03T20:42:09;101464.75;;;17.82;45.43
46394;BME280;32099;53.588;10.176;2022-09-03T20:44:49;101458.78;;;17.78;45.41
46394;BME280;32099;53.588;10.176;2022-09-03T20:52:54;101467.53;;;17.68;46.01
46394;BME280;32099;53.588;10.176;2022-09-03T20:55:43;101472.41;;;17.66;46.22
46394;BME280;32099;53.588;10.176;2022-09-03T20:58:19;101471.75;;;17.64;46.24
46394;BME280;32099;53.588;10.176;2022-09-03T21:01:03;101470.47;;;17.60;46.69
46394;BME280;32099;53.588;10.176;2022-09-03T21:03:44;101464.97;;;17.60;46.80
46394;BME280;32099;53.588;10.176;2022-09-03T21:09:19;101461.38;;;17.53;47.53
46394;BME280;32099;53.588;10.176;2022-09-03T21:14:31;101469.44;;;17.48;48.26
46394;BME280;32099;53.588;10.176;2022-09-03T21:17:06;101474.97;;;17.48;48.38
46394;BME280;32099;53.588;10.176;2022-09-03T21:19:59;101471.97;;;17.49;49.00
46394;BME280;32099;53.588;10.176;2022-09-03T21:22:30;101474.09;;;17.47;49.09
46394;BME280;32099;53.588;10.176;2022-09-03T21:25:07;101461.78;;;17.43;49.60
46394;BME280;32099;53.588;10.176;2022-09-03T21:27:40;101474.31;;;17.39;49.70
46394;BME280;32099;53.588;10.176;2022-09-03T21:30:13;101467.31;;;17.36;50.33
46394;BME280;32099;53.588;10.176;2022-09-03T21:32:46;101477.69;;;17.34;50.37
46394;BME280;32099;53.588;10.176;2022-09-03T21:35:19;101474.94;;;17.34;50.08
46394;BME280;32099;53.588;10.176;2022-09-03T21:38:06;101477.69;;;17.34;50.69
46394;BME280;32099;53.588;10.176;2022-09-03T21:40:32;101472.81;;;17.30;51.90
46394;BME280;32099;53.588;10.176;2022-09-03T21:43:06;101483.63;;;17.24;52.84
46394;BME280;32099;53.588;10.176;2022-09-03T21:45:50;101480.66;;;17.19;52.83
46394;BME280;32099;53.588;10.176;2022-09-03T21:48:25;101491.88;;;17.18;52.32
46394;BME280;32099;53.588;10.176;2022-09-03T21:50:59;101492.50;;;17.13;52.46
46394;BME280;32099;53.588;10.176;2022-09-03T21:56:15;101484.84;;;17.08;52.73
46394;BME280;32099;53.588;10.176;2022-09-03T21:59:02;101487.22;;;17.11;52.87
46394;BME280;32099;53.588;10.176;2022-09-03T22:01:55;101483.19;;;17.14;52.81
46394;BME280;32099;53.588;10.176;2022-09-03T22:04:35;101493.97;;;17.16;52.95
46394;BME280;32099;53.588;10.176;2022-09-03T22:07:03;101491.22;;;17.09;53.51
46394;BME280;32099;53.588;10.176;2022-09-03T22:09:53;101494.41;;;17.06;53.62
46394;BME280;32099;53.588;10.176;2022-09-03T22:12:38;101488.88;;;17.06;53.82
46394;BME280;32099;53.588;10.176;2022-09-03T22:15:26;101493.97;;;17.02;54.04
46394;BME280;32099;53.588;10.176;2022-09-03T22:20:25;101492.47;;;17.00;54.16